Time;durP1;ratioP1;P1;durP2;ratioP2;P2;SDS_P1;SDS_P2;PMS_P1;PMS_P2;Temp;Humidity;BMP_temperature;BMP_pressure;BME280_temperature;BME280_humidity;BME280_pressure;Samples;Min_cycle;Max_cycle;Signal;HPM_P1;HPM_P2
2021/07/29 00:00:32;;;;;;;16.00;14.93;;;;;;;;;;3586154;40;20356;-67
2021/07/29 00:02:58;;;;;;;15.93;14.73;;;;;;;;;;3586149;40;20257;-66
2021/07/29 00:05:24;;;;;;;14.05;13.00;;;;;;;;;;3587404;40;20045;-66
2021/07/29 00:07:51;;;;;;;13.93;12.82;;;;;;;;;;3587482;40;20068;-66
2021/07/29 00:10:17;;;;;;;15.48;14.48;;;;;;;;;;3587897;40;20117;-66
2021/07/29 00:12:42;;;;;;;14.90;13.90;;;;;;;;;;3587846;40;20037;-65
2021/07/29 00:15:12;;;;;;;15.93;14.73;;;;;;;;;;3594211;40;20037;-66
2021/07/29 00:20:19;;;;;;;14.63;13.73;;;;;;;;;;3587744;40;20033;-66
2021/07/29 00:22:49;;;;;;;15.02;14.02;;;;;;;;;;3587294;40;20461;-66
2021/07/29 00:25:14;;;;;;;14.70;13.57;;;;;;;;;;3587263;40;20040;-65
2021/07/29 00:27:43;;;;;;;14.23;13.15;;;;;;;;;;3585442;40;20259;-65
2021/07/29 00:30:11;;;;;;;14.00;13.00;;;;;;;;;;3585769;40;20058;-66
2021/07/29 00:32:37;;;;;;;14.70;13.80;;;;;;;;;;3586757;40;20057;-66
2021/07/29 00:35:07;;;;;;;14.68;13.45;;;;;;;;;;3585975;40;20256;-66
2021/07/29 00:37:33;;;;;;;;;;;;;;;;;;3587468;40;20035;-66
2021/07/29 00:39:58;;;;;;;11.90;11.00;;;;;;;;;;3587087;40;19928;-66
2021/07/29 00:42:24;;;;;;;12.73;11.80;;;;;;;;;;3586658;40;20040;-66
2021/07/29 00:44:49;;;;;;;12.60;11.73;;;;;;;;;;3587745;40;20044;-66
2021/07/29 00:47:16;;;;;;;13.85;12.90;;;;;;;;;;3586886;40;20045;-66
2021/07/29 00:49:43;;;;;;;14.35;13.15;;;;;;;;;;3586916;40;20048;-65
2021/07/29 00:52:09;;;;;;;13.52;12.50;;;;;;;;;;3587476;40;20100;-66
2021/07/29 00:54:35;;;;;;;15.50;14.10;;;;;;;;;;3587394;40;20043;-66
2021/07/29 00:57:02;;;;;;;13.02;12.13;;;;;;;;;;3584793;40;20370;-66
2021/07/29 00:59:28;;;;;;;15.68;14.68;;;;;;;;;;3586054;40;20053;-66
2021/07/29 01:01:54;;;;;;;15.45;14.45;;;;;;;;;;3586644;40;20372;-66
2021/07/29 01:04:19;;;;;;;14.88;13.88;;;;;;;;;;3587308;40;20038;-66
2021/07/29 01:06:45;;;;;;;15.20;14.00;;;;;;;;;;3586915;40;20047;-66
2021/07/29 01:09:11;;;;;;;13.15;12.25;;;;;;;;;;3587071;40;20056;-66
2021/07/29 01:11:41;;;;;;;15.73;14.60;;;;;;;;;;3586902;40;20137;-66
2021/07/29 01:14:07;;;;;;;13.15;12.15;;;;;;;;;;3586640;40;20042;-66
2021/07/29 01:16:33;;;;;;;14.88;13.85;;;;;;;;;;3586686;40;20077;-66
2021/07/29 01:19:00;;;;;;;14.68;13.23;;;;;;;;;;3586965;40;20048;-66
2021/07/29 01:21:27;;;;;;;12.98;12.07;;;;;;;;;;3586990;40;20172;-66
2021/07/29 01:23:52;;;;;;;13.07;11.98;;;;;;;;;;3585873;40;20080;-66
2021/07/29 01:26:18;;;;;;;12.40;11.50;;;;;;;;;;3585711;40;20284;-66
2021/07/29 01:28:43;;;;;;;14.02;12.93;;;;;;;;;;3587166;40;20036;-66
2021/07/29 01:31:09;;;;;;;14.35;13.35;;;;;;;;;;3582963;40;20040;-65
2021/07/29 01:33:36;;;;;;;13.05;12.15;;;;;;;;;;3586911;40;20037;-66
2021/07/29 01:36:01;;;;;;;13.90;12.95;;;;;;;;;;3586635;40;20045;-66
2021/07/29 01:38:26;;;;;;;14.65;12.32;;;;;;;;;;3583948;40;20141;-68
2021/07/29 01:40:52;;;;;;;13.55;12.52;;;;;;;;;;3585984;40;20141;-67
2021/07/29 01:43:17;;;;;;;12.40;11.50;;;;;;;;;;3585806;40;20049;-67
2021/07/29 01:45:44;;;;;;;12.57;11.68;;;;;;;;;;3586270;40;20273;-67
2021/07/29 01:48:09;;;;;;;11.88;10.95;;;;;;;;;;3585999;40;20063;-68
2021/07/29 01:50:35;;;;;;;13.65;12.65;;;;;;;;;;3586699;40;20597;-67
2021/07/29 01:53:00;;;;;;;12.43;11.52;;;;;;;;;;3586875;40;20052;-67
2021/07/29 01:55:25;;;;;;;12.60;11.55;;;;;;;;;;3586395;40;20053;-69
2021/07/29 01:57:51;;;;;;;12.40;11.43;;;;;;;;;;3586112;40;20106;-67
2021/07/29 02:00:16;;;;;;;12.23;11.32;;;;;;;;;;3584752;40;20305;-67
2021/07/29 02:02:42;;;;;;;12.02;11.15;;;;;;;;;;3585800;40;20049;-68
2021/07/29 02:05:07;;;;;;;11.80;10.90;;;;;;;;;;3586183;40;20033;-67
2021/07/29 02:07:33;;;;;;;11.77;10.88;;;;;;;;;;3583046;40;20037;-67
2021/07/29 02:09:58;;;;;;;13.18;12.18;;;;;;;;;;3585349;40;20047;-67
2021/07/29 02:12:24;;;;;;;12.70;11.70;;;;;;;;;;3585652;40;20044;-69
2021/07/29 02:14:49;;;;;;;13.32;12.02;;;;;;;;;;3586040;40;20041;-69
2021/07/29 02:17:18;;;;;;;15.00;13.90;;;;;;;;;;3586624;40;20126;-69
2021/07/29 02:19:43;;;;;;;13.38;12.38;;;;;;;;;;3586099;40;20788;-69
2021/07/29 02:22:08;;;;;;;11.30;10.40;;;;;;;;;;3586275;40;20029;-67
2021/07/29 02:24:34;;;;;;;12.38;10.73;;;;;;;;;;3587113;40;20041;-68
2021/07/29 02:26:59;;;;;;;11.88;10.77;;;;;;;;;;3585701;40;20036;-68
2021/07/29 02:29:24;;;;;;;11.25;10.35;;;;;;;;;;3586387;40;20050;-67
2021/07/29 02:31:50;;;;;;;12.52;11.50;;;;;;;;;;3586790;40;20029;-67
2021/07/29 02:34:15;;;;;;;11.90;10.95;;;;;;;;;;3585324;40;20069;-67
2021/07/29 02:36:40;;;;;;;11.15;10.35;;;;;;;;;;3586392;40;20039;-67
2021/07/29 02:39:06;;;;;;;14.43;10.68;;;;;;;;;;3586949;40;20029;-67
2021/07/29 02:41:33;;;;;;;11.63;10.82;;;;;;;;;;3586491;40;20125;-67
2021/07/29 02:43:58;;;;;;;11.98;10.88;;;;;;;;;;3586766;40;20029;-67
2021/07/29 02:46:24;;;;;;;11.65;10.73;;;;;;;;;;3586511;40;20068;-67
2021/07/29 02:48:49;;;;;;;11.35;10.55;;;;;;;;;;3586848;40;20360;-67
2021/07/29 02:51:15;;;;;;;13.45;12.35;;;;;;;;;;3586169;40;20028;-67
2021/07/29 02:53:40;;;;;;;12.82;11.85;;;;;;;;;;3585283;40;20080;-67
2021/07/29 02:56:08;;;;;;;12.93;9.75;;;;;;;;;;3585903;40;20048;-66
2021/07/29 02:58:33;;;;;;;11.93;11.02;;;;;;;;;;3583791;40;20044;-67
2021/07/29 03:00:59;;;;;;;11.40;10.40;;;;;;;;;;3581394;40;20053;-67
2021/07/29 03:03:24;;;;;;;10.35;9.45;;;;;;;;;;3582760;40;20380;-67
2021/07/29 03:05:49;;;;;;;12.02;11.02;;;;;;;;;;3585748;40;20276;-67
2021/07/29 03:08:15;;;;;;;10.82;10.02;;;;;;;;;;3585194;40;20068;-67
2021/07/29 03:10:44;;;;;;;10.70;9.88;;;;;;;;;;3581961;40;20052;-67
2021/07/29 03:13:10;;;;;;;10.13;9.15;;;;;;;;;;3583466;40;20379;-67
2021/07/29 03:15:35;;;;;;;13.05;11.93;;;;;;;;;;3586106;40;20051;-67
2021/07/29 03:18:00;;;;;;;11.23;10.43;;;;;;;;;;3585128;40;20141;-67
2021/07/29 03:20:26;;;;;;;11.07;10.23;;;;;;;;;;3584233;40;20033;-67
2021/07/29 03:22:51;;;;;;;11.23;10.43;;;;;;;;;;3586315;40;20043;-66
2021/07/29 03:25:17;;;;;;;11.40;10.50;;;;;;;;;;3585687;40;20040;-67
2021/07/29 03:27:42;;;;;;;11.10;10.20;;;;;;;;;;3586152;40;20039;-67
2021/07/29 03:30:08;;;;;;;9.07;8.35;;;;;;;;;;3586232;40;20032;-67
2021/07/29 03:32:33;;;;;;;9.95;8.95;;;;;;;;;;3585883;40;20292;-67
2021/07/29 03:34:59;;;;;;;9.63;8.73;;;;;;;;;;3586253;40;20028;-66
2021/07/29 03:37:24;;;;;;;10.02;9.23;;;;;;;;;;3586159;40;20040;-67
2021/07/29 03:39:49;;;;;;;8.93;7.90;;;;;;;;;;3586941;40;20537;-67
2021/07/29 03:42:15;;;;;;;11.25;10.32;;;;;;;;;;3587551;40;20277;-67
2021/07/29 03:44:40;;;;;;;11.38;10.40;;;;;;;;;;3587887;40;20043;-67
2021/07/29 03:47:06;;;;;;;9.85;9.15;;;;;;;;;;3587067;40;20422;-67
2021/07/29 03:49:35;;;;;;;9.98;9.07;;;;;;;;;;3587649;40;20052;-65
2021/07/29 03:52:01;;;;;;;9.95;9.18;;;;;;;;;;3588016;40;20288;-68
2021/07/29 03:54:26;;;;;;;10.10;9.25;;;;;;;;;;3587533;40;20033;-68
2021/07/29 03:56:51;;;;;;;9.27;8.45;;;;;;;;;;3586992;40;20089;-67
2021/07/29 03:59:17;;;;;;;10.07;9.18;;;;;;;;;;3585645;40;20433;-68
2021/07/29 04:01:42;;;;;;;9.68;8.77;;;;;;;;;;3583059;40;20602;-67
2021/07/29 04:04:07;;;;;;;10.23;9.43;;;;;;;;;;3582767;40;20035;-68
2021/07/29 04:06:33;;;;;;;10.43;9.52;;;;;;;;;;3584070;40;20032;-68
2021/07/29 04:08:58;;;;;;;10.13;9.32;;;;;;;;;;3585457;40;20036;-68
2021/07/29 04:11:24;;;;;;;9.95;9.05;;;;;;;;;;3584928;40;20395;-68
2021/07/29 04:13:49;;;;;;;10.27;8.25;;;;;;;;;;3585317;40;20028;-68
2021/07/29 04:16:14;;;;;;;8.93;8.13;;;;;;;;;;3585864;40;20380;-67
2021/07/29 04:18:40;;;;;;;9.80;7.80;;;;;;;;;;3585701;40;20951;-68
2021/07/29 04:21:05;;;;;;;8.20;7.45;;;;;;;;;;3586361;40;20126;-68
2021/07/29 04:23:31;;;;;;;8.95;7.50;;;;;;;;;;3585646;40;20045;-67
2021/07/29 04:25:56;;;;;;;9.07;8.18;;;;;;;;;;3585548;40;20040;-68
2021/07/29 04:28:22;;;;;;;9.35;8.52;;;;;;;;;;3585622;40;20037;-68
2021/07/29 04:30:47;;;;;;;7.70;6.90;;;;;;;;;;3585181;40;20032;-67
2021/07/29 04:33:12;;;;;;;8.60;7.78;;;;;;;;;;3584498;40;20057;-69
2021/07/29 04:35:38;;;;;;;14.13;8.15;;;;;;;;;;3586317;40;20053;-67
2021/07/29 04:38:04;;;;;;;9.20;8.40;;;;;;;;;;3586027;40;20052;-67
2021/07/29 04:40:29;;;;;;;8.38;7.25;;;;;;;;;;3584760;40;20222;-67
2021/07/29 04:42:55;;;;;;;8.20;7.47;;;;;;;;;;3585616;40;20241;-68
2021/07/29 04:45:20;;;;;;;7.45;6.75;;;;;;;;;;3586081;40;20323;-67
2021/07/29 04:47:46;;;;;;;10.52;7.93;;;;;;;;;;3583985;40;20545;-68
2021/07/29 04:50:11;;;;;;;7.63;6.95;;;;;;;;;;3583729;40;20048;-68
2021/07/29 04:52:36;;;;;;;8.90;8.20;;;;;;;;;;3585818;40;20051;-68
2021/07/29 04:55:02;;;;;;;9.88;9.07;;;;;;;;;;3586737;40;20364;-68
2021/07/29 04:57:27;;;;;;;11.35;9.88;;;;;;;;;;3586470;40;20049;-70
2021/07/29 04:59:53;;;;;;;10.15;9.43;;;;;;;;;;3586779;40;20032;-69
2021/07/29 05:02:18;;;;;;;9.45;8.70;;;;;;;;;;3587046;40;20056;-68
2021/07/29 05:04:44;;;;;;;12.48;11.57;;;;;;;;;;3587716;40;20028;-69
2021/07/29 05:07:12;;;;;;;12.05;11.05;;;;;;;;;;3587417;40;20028;-67
2021/07/29 05:09:38;;;;;;;11.38;10.45;;;;;;;;;;3587192;40;20041;-69
2021/07/29 05:12:04;;;;;;;11.77;10.93;;;;;;;;;;3587302;40;20379;-68
2021/07/29 05:14:29;;;;;;;11.80;10.90;;;;;;;;;;3583454;40;20048;-69
2021/07/29 05:17:00;;;;;;;13.80;12.70;;;;;;;;;;3582635;40;20048;-69
2021/07/29 05:19:25;;;;;;;;;;;;;;;;;;3586233;40;20035;-68
2021/07/29 05:21:51;;;;;;;8.55;7.75;;;;;;;;;;3585451;40;20211;-69
2021/07/29 05:24:16;;;;;;;12.25;11.30;;;;;;;;;;3586174;40;20084;-69
2021/07/29 05:26:43;;;;;;;9.07;8.30;;;;;;;;;;3587019;40;20153;-68
2021/07/29 05:29:08;;;;;;;11.50;10.55;;;;;;;;;;3587320;40;20076;-68
2021/07/29 05:31:35;;;;;;;9.35;8.55;;;;;;;;;;3586085;40;20044;-68
2021/07/29 05:34:01;;;;;;;11.63;7.25;;;;;;;;;;3585921;40;20045;-69
2021/07/29 05:36:26;;;;;;;9.93;7.55;;;;;;;;;;3582940;40;20033;-68
2021/07/29 05:38:52;;;;;;;10.38;9.48;;;;;;;;;;3587004;40;20413;-68
2021/07/29 05:41:17;;;;;;;7.85;4.70;;;;;;;;;;3587227;40;20269;-69
2021/07/29 05:43:42;;;;;;;8.32;7.53;;;;;;;;;;3586969;40;20099;-68
2021/07/29 05:46:12;;;;;;;6.85;5.03;;;;;;;;;;3586318;40;20130;-68
2021/07/29 05:48:38;;;;;;;6.00;5.40;;;;;;;;;;3585771;40;20064;-68
2021/07/29 05:51:04;;;;;;;6.10;4.18;;;;;;;;;;3585333;40;20044;-69
2021/07/29 05:53:30;;;;;;;6.10;4.13;;;;;;;;;;3585877;40;20052;-69
2021/07/29 05:55:55;;;;;;;5.97;5.38;;;;;;;;;;3586124;40;20052;-69
2021/07/29 05:58:21;;;;;;;8.60;3.97;;;;;;;;;;3587190;40;20051;-68
2021/07/29 06:00:47;;;;;;;6.45;4.53;;;;;;;;;;3586881;40;20067;-69
2021/07/29 06:03:13;;;;;;;10.55;5.47;;;;;;;;;;3585619;40;20052;-69
2021/07/29 06:05:38;;;;;;;7.18;4.47;;;;;;;;;;3586658;40;20040;-69
2021/07/29 06:08:04;;;;;;;6.50;5.00;;;;;;;;;;3586698;40;20073;-69
2021/07/29 06:10:29;;;;;;;8.15;5.00;;;;;;;;;;3585461;40;20383;-69
2021/07/29 06:12:55;;;;;;;6.80;4.47;;;;;;;;;;3584322;40;20041;-68
2021/07/29 06:15:20;;;;;;;6.25;4.28;;;;;;;;;;3585662;40;20493;-68
2021/07/29 06:17:50;;;;;;;7.95;4.88;;;;;;;;;;3584798;40;20170;-68
2021/07/29 06:20:15;;;;;;;5.03;3.83;;;;;;;;;;3582618;40;20143;-68
2021/07/29 06:22:40;;;;;;;4.97;4.28;;;;;;;;;;3586619;40;20460;-68
2021/07/29 06:25:08;;;;;;;6.00;4.78;;;;;;;;;;3585213;40;20039;-68
2021/07/29 06:27:35;;;;;;;7.75;5.18;;;;;;;;;;3586555;40;20041;-68
2021/07/29 06:30:01;;;;;;;5.97;4.43;;;;;;;;;;3586506;40;20036;-68
2021/07/29 06:32:26;;;;;;;6.63;4.82;;;;;;;;;;3586299;40;20029;-68
2021/07/29 06:34:51;;;;;;;4.32;3.40;;;;;;;;;;3586495;40;20033;-70
2021/07/29 06:37:17;;;;;;;4.90;3.72;;;;;;;;;;3582838;40;20071;-67
2021/07/29 06:39:42;;;;;;;6.60;4.05;;;;;;;;;;3584857;40;20579;-67
2021/07/29 06:42:07;;;;;;;8.52;4.55;;;;;;;;;;3583373;40;20044;-67
2021/07/29 06:44:33;;;;;;;8.73;4.60;;;;;;;;;;3585887;40;20059;-67
2021/07/29 06:46:58;;;;;;;5.60;3.63;;;;;;;;;;3586371;40;20039;-68
2021/07/29 06:49:28;;;;;;;7.70;3.92;;;;;;;;;;3586019;40;20294;-67
2021/07/29 06:51:54;;;;;;;9.02;3.95;;;;;;;;;;3585582;40;20392;-67
2021/07/29 06:54:19;;;;;;;5.53;4.00;;;;;;;;;;3586678;40;20138;-68
2021/07/29 06:56:44;;;;;;;8.35;3.90;;;;;;;;;;3586286;40;20457;-67
2021/07/29 06:59:10;;;;;;;6.15;4.00;;;;;;;;;;3586521;40;20051;-69
2021/07/29 07:01:35;;;;;;;6.55;3.90;;;;;;;;;;3585711;40;20057;-68
2021/07/29 07:04:00;;;;;;;4.90;3.30;;;;;;;;;;3586548;40;20043;-68
2021/07/29 07:06:26;;;;;;;7.57;3.42;;;;;;;;;;3585709;40;20040;-69
2021/07/29 07:08:51;;;;;;;5.00;3.85;;;;;;;;;;3586225;40;20077;-68
2021/07/29 07:11:17;;;;;;;5.90;3.13;;;;;;;;;;3586872;40;20269;-67
2021/07/29 07:13:44;;;;;;;6.30;3.70;;;;;;;;;;3584288;40;20654;-67
2021/07/29 07:16:14;;;;;;;5.65;3.20;;;;;;;;;;3585791;40;20059;-67
2021/07/29 07:18:40;;;;;;;5.63;3.30;;;;;;;;;;3585995;40;20036;-66
2021/07/29 07:21:07;;;;;;;6.75;3.00;;;;;;;;;;3586260;40;20033;-68
2021/07/29 07:23:33;;;;;;;5.38;3.55;;;;;;;;;;3585315;40;20186;-68
2021/07/29 07:25:59;;;;;;;4.57;2.78;;;;;;;;;;3585688;40;20024;-68
2021/07/29 07:28:24;;;;;;;5.82;3.35;;;;;;;;;;3586350;40;20362;-68
2021/07/29 07:30:49;;;;;;;4.47;3.38;;;;;;;;;;3586546;40;20029;-68
2021/07/29 07:33:15;;;;;;;7.68;3.45;;;;;;;;;;3585732;40;20384;-67
2021/07/29 07:35:40;;;;;;;3.72;2.92;;;;;;;;;;3586439;40;20591;-67
2021/07/29 07:38:05;;;;;;;5.47;3.25;;;;;;;;;;3586246;40;20033;-67
2021/07/29 07:40:31;;;;;;;5.90;3.42;;;;;;;;;;3586206;40;20375;-68
2021/07/29 07:42:57;;;;;;;9.02;3.42;;;;;;;;;;3586216;40;20036;-68
2021/07/29 07:45:23;;;;;;;5.03;3.33;;;;;;;;;;3586225;40;20166;-59
2021/07/29 07:47:48;;;;;;;5.63;3.47;;;;;;;;;;3586598;40;20518;-59
2021/07/29 07:50:14;;;;;;;6.57;3.60;;;;;;;;;;3585813;40;20044;-59
2021/07/29 07:52:39;;;;;;;6.80;3.95;;;;;;;;;;3586064;40;20076;-59
2021/07/29 07:55:05;;;;;;;6.63;3.08;;;;;;;;;;3588212;40;20045;-58
2021/07/29 07:57:30;;;;;;;5.30;2.70;;;;;;;;;;3585148;40;20478;-58
2021/07/29 07:59:58;;;;;;;4.95;2.95;;;;;;;;;;3585041;40;20291;-66
2021/07/29 08:02:24;;;;;;;6.38;3.45;;;;;;;;;;3585473;40;20043;-67
2021/07/29 08:04:50;;;;;;;5.57;3.70;;;;;;;;;;3586095;40;20039;-67
2021/07/29 08:07:15;;;;;;;4.40;2.80;;;;;;;;;;3585887;40;20058;-66
2021/07/29 08:09:41;;;;;;;7.32;3.20;;;;;;;;;;3584518;40;20428;-66
2021/07/29 08:12:06;;;;;;;6.00;3.20;;;;;;;;;;3584775;40;20025;-66
2021/07/29 08:14:34;;;;;;;7.25;3.22;;;;;;;;;;3584911;40;20052;-65
2021/07/29 08:16:59;;;;;;;3.90;2.13;;;;;;;;;;3585692;40;20033;-65
2021/07/29 08:19:25;;;;;;;4.70;2.95;;;;;;;;;;3585460;40;20398;-65
2021/07/29 08:21:51;;;;;;;5.32;2.78;;;;;;;;;;3585007;40;20045;-65
2021/07/29 08:24:17;;;;;;;5.25;3.03;;;;;;;;;;3584700;40;20637;-65
2021/07/29 08:26:44;;;;;;;4.40;2.50;;;;;;;;;;3585866;40;20125;-66
2021/07/29 08:29:09;;;;;;;4.40;3.05;;;;;;;;;;3585777;40;20068;-66
2021/07/29 08:31:34;;;;;;;4.75;2.30;;;;;;;;;;3587891;40;20040;-65
2021/07/29 08:34:00;;;;;;;4.38;2.60;;;;;;;;;;3586567;40;20381;-65
2021/07/29 08:36:25;;;;;;;5.22;2.75;;;;;;;;;;3587227;40;20028;-66
2021/07/29 08:38:51;;;;;;;5.60;3.10;;;;;;;;;;3586203;40;20115;-66
2021/07/29 08:41:18;;;;;;;4.75;2.72;;;;;;;;;;3586545;40;20048;-65
2021/07/29 08:43:44;;;;;;;4.50;2.40;;;;;;;;;;3586448;40;20052;-66
2021/07/29 08:46:13;;;;;;;4.47;2.70;;;;;;;;;;3585692;40;20044;-65
2021/07/29 08:48:44;;;;;;;4.07;2.65;;;;;;;;;;3582408;40;20622;-65
2021/07/29 08:51:09;;;;;;;4.45;2.63;;;;;;;;;;3587330;40;20296;-65
2021/07/29 08:53:34;;;;;;;3.70;2.33;;;;;;;;;;3586522;40;20041;-65
2021/07/29 08:56:00;;;;;;;5.57;2.80;;;;;;;;;;3585673;40;20029;-67
2021/07/29 08:58:25;;;;;;;5.07;2.63;;;;;;;;;;3584808;40;20044;-65
2021/07/29 09:00:58;;;;;;;3.65;2.28;;;;;;;;;;3586376;40;20035;-65
2021/07/29 09:03:26;;;;;;;8.13;2.55;;;;;;;;;;3587269;40;20120;-66
2021/07/29 09:06:13;;;;;;;3.85;2.03;;;;;;;;;;3585583;40;20036;-66
2021/07/29 09:08:50;;;;;;;4.53;2.53;;;;;;;;;;3586770;40;20474;-66
2021/07/29 09:11:37;;;;;;;5.05;3.10;;;;;;;;;;3585094;40;20106;-65
2021/07/29 09:14:12;;;;;;;4.20;2.08;;;;;;;;;;3584887;40;20137;-71
2021/07/29 09:17:01;;;;;;;4.20;2.45;;;;;;;;;;3585520;40;20069;-66
2021/07/29 09:19:34;;;;;;;5.13;2.30;;;;;;;;;;3586893;40;20048;-66
2021/07/29 09:22:06;;;;;;;4.72;2.45;;;;;;;;;;3586724;40;20033;-65
2021/07/29 09:24:32;;;;;;;5.20;2.33;;;;;;;;;;3586022;40;20387;-65
2021/07/29 09:26:58;;;;;;;7.57;2.30;;;;;;;;;;3586282;40;20037;-67
2021/07/29 09:29:28;;;;;;;3.92;2.58;;;;;;;;;;3585777;40;20037;-65
2021/07/29 09:32:09;;;;;;;4.38;2.13;;;;;;;;;;3586000;40;20088;-65
2021/07/29 09:34:45;;;;;;;5.57;1.70;;;;;;;;;;3585742;40;20048;-66
2021/07/29 09:37:11;;;;;;;3.90;2.30;;;;;;;;;;3585810;40;20126;-66
2021/07/29 09:39:37;;;;;;;5.55;2.20;;;;;;;;;;3586084;40;20095;-66
2021/07/29 09:42:22;;;;;;;5.72;2.00;;;;;;;;;;3586808;40;20140;-66
2021/07/29 09:44:53;;;;;;;3.42;2.03;;;;;;;;;;3584949;40;20029;-65
2021/07/29 09:47:22;;;;;;;5.20;2.15;;;;;;;;;;3584164;40;20360;-66
2021/07/29 09:49:50;;;;;;;5.80;1.98;;;;;;;;;;3586088;40;20060;-65
2021/07/29 09:52:15;;;;;;;4.72;1.83;;;;;;;;;;3586515;40;20028;-65
2021/07/29 09:54:44;;;;;;;4.20;2.15;;;;;;;;;;3585516;40;20139;-65
2021/07/29 09:57:10;;;;;;;3.45;2.10;;;;;;;;;;3585669;40;20032;-66
2021/07/29 09:59:37;;;;;;;5.00;2.08;;;;;;;;;;3586137;40;20031;-66
2021/07/29 10:02:03;;;;;;;6.05;2.08;;;;;;;;;;3586597;40;20048;-66
2021/07/29 10:04:45;;;;;;;4.15;1.80;;;;;;;;;;3586553;40;20106;-65
2021/07/29 10:07:25;;;;;;;3.20;1.90;;;;;;;;;;3586406;40;20036;-65
2021/07/29 10:09:52;;;;;;;3.20;1.95;;;;;;;;;;3586894;40;20149;-65
2021/07/29 10:12:26;;;;;;;3.53;2.00;;;;;;;;;;3586015;40;20045;-65
2021/07/29 10:14:53;;;;;;;4.25;2.40;;;;;;;;;;3594131;40;20033;-65
2021/07/29 10:17:33;;;;;;;3.92;2.03;;;;;;;;;;3586221;40;20040;-66
2021/07/29 10:20:16;;;;;;;5.90;2.05;;;;;;;;;;3585988;40;20095;-65
2021/07/29 10:22:44;;;;;;;3.10;1.90;;;;;;;;;;3586785;40;20737;-65
2021/07/29 10:25:10;;;;;;;3.78;2.25;;;;;;;;;;3586264;40;20081;-65
2021/07/29 10:27:36;;;;;;;4.03;1.90;;;;;;;;;;3586209;40;20036;-65
2021/07/29 10:30:19;;;;;;;6.50;2.13;;;;;;;;;;3584937;40;20036;-67
2021/07/29 10:32:49;;;;;;;2.90;1.75;;;;;;;;;;3586628;40;20052;-66
2021/07/29 10:35:30;;;;;;;6.15;1.92;;;;;;;;;;3586960;40;20035;-65
2021/07/29 10:37:59;;;;;;;3.63;2.00;;;;;;;;;;3586545;40;20039;-65
2021/07/29 10:40:35;;;;;;;4.00;2.35;;;;;;;;;;3586002;40;20041;-65
2021/07/29 10:43:25;;;;;;;4.20;2.28;;;;;;;;;;3585022;40;20042;-65
2021/07/29 10:45:50;;;;;;;3.47;1.80;;;;;;;;;;3586125;40;20111;-66
2021/07/29 10:48:41;;;;;;;3.42;2.00;;;;;;;;;;3586645;40;20044;-65
2021/07/29 10:51:12;;;;;;;;;;;;;;;;;;3586078;40;20428;-64
2021/07/29 10:53:39;;;;;;;3.45;2.53;;;;;;;;;;3584015;40;20393;-65
2021/07/29 10:56:07;;;;;;;4.15;2.25;;;;;;;;;;3585565;40;20061;-64
2021/07/29 10:58:40;;;;;;;4.90;2.40;;;;;;;;;;3586201;40;20056;-66
2021/07/29 11:01:06;;;;;;;3.47;2.15;;;;;;;;;;3585513;40;20023;-65
2021/07/29 11:03:31;;;;;;;7.18;2.20;;;;;;;;;;3585913;40;20024;-64
2021/07/29 11:06:08;;;;;;;3.90;2.35;;;;;;;;;;3584967;40;20037;-65
2021/07/29 11:08:34;;;;;;;4.63;2.15;;;;;;;;;;3585323;40;20147;-66
2021/07/29 11:11:01;;;;;;;4.10;2.10;;;;;;;;;;3585800;40;20510;-59
2021/07/29 11:13:28;;;;;;;3.97;2.13;;;;;;;;;;3585269;40;20036;-59
2021/07/29 11:15:56;;;;;;;4.65;2.28;;;;;;;;;;3585250;40;20036;-59
2021/07/29 11:18:21;;;;;;;6.03;2.67;;;;;;;;;;3586604;40;20032;-59
2021/07/29 11:20:47;;;;;;;5.18;2.30;;;;;;;;;;3586373;40;20041;-59
2021/07/29 11:23:15;;;;;;;4.32;2.10;;;;;;;;;;3586471;40;20489;-58
2021/07/29 11:25:57;;;;;;;3.78;2.15;;;;;;;;;;3585987;40;20040;-58
2021/07/29 11:28:23;;;;;;;4.13;2.10;;;;;;;;;;3586487;40;20089;-60
2021/07/29 11:30:48;;;;;;;8.05;2.50;;;;;;;;;;3585977;40;20526;-63
2021/07/29 11:33:21;;;;;;;3.35;1.80;;;;;;;;;;3585410;40;20309;-59
2021/07/29 11:35:47;;;;;;;3.30;2.40;;;;;;;;;;3585687;40;20028;-58
2021/07/29 11:38:20;;;;;;;4.55;2.35;;;;;;;;;;3585848;40;20068;-58
2021/07/29 11:40:46;;;;;;;2.92;1.80;;;;;;;;;;3584278;40;20033;-59
2021/07/29 11:43:25;;;;;;;5.15;1.98;;;;;;;;;;3586363;40;20048;-59
2021/07/29 11:45:51;;;;;;;4.38;1.98;;;;;;;;;;3585702;40;20033;-61
2021/07/29 11:48:23;;;;;;;4.38;2.17;;;;;;;;;;3583209;40;20399;-58
2021/07/29 11:50:51;;;;;;;4.10;2.08;;;;;;;;;;3584652;40;20068;-59
2021/07/29 11:53:17;;;;;;;5.00;2.22;;;;;;;;;;3583272;40;20029;-59
2021/07/29 11:55:54;;;;;;;3.30;1.83;;;;;;;;;;3582786;40;20044;-59
2021/07/29 11:58:20;;;;;;;4.15;1.80;;;;;;;;;;3585125;40;20025;-59
2021/07/29 12:00:49;;;;;;;3.08;1.95;;;;;;;;;;3586894;40;20039;-59
2021/07/29 12:03:31;;;;;;;3.75;2.30;;;;;;;;;;3586868;40;20043;-59
2021/07/29 12:05:58;;;;;;;4.45;2.13;;;;;;;;;;3587424;40;20067;-59
2021/07/29 12:08:24;;;;;;;4.85;2.28;;;;;;;;;;3587341;40;20025;-59
2021/07/29 12:10:53;;;;;;;3.60;2.30;;;;;;;;;;3585609;40;20364;-59
2021/07/29 12:13:20;;;;;;;3.85;1.83;;;;;;;;;;3587073;40;20044;-60
2021/07/29 12:15:53;;;;;;;2.78;1.70;;;;;;;;;;3586455;40;20371;-59
2021/07/29 12:18:22;;;;;;;4.00;2.05;;;;;;;;;;3587004;40;20126;-60
2021/07/29 12:20:56;;;;;;;2.90;1.63;;;;;;;;;;3586354;40;20157;-59
2021/07/29 12:23:23;;;;;;;4.05;2.00;;;;;;;;;;3586804;40;20068;-59
2021/07/29 12:25:49;;;;;;;3.00;2.05;;;;;;;;;;3587177;40;20340;-59
2021/07/29 12:28:15;;;;;;;3.72;2.42;;;;;;;;;;3586451;40;20060;-59
2021/07/29 12:30:42;;;;;;;5.65;2.45;;;;;;;;;;3586462;40;20114;-59
2021/07/29 12:33:13;;;;;;;3.20;1.95;;;;;;;;;;3587632;40;20029;-59
2021/07/29 12:35:39;;;;;;;;;;;;;;;;;;3584547;40;20045;-59
2021/07/29 12:38:05;;;;;;;3.03;1.77;;;;;;;;;;3587564;40;19928;-59
2021/07/29 12:40:31;;;;;;;5.80;2.22;;;;;;;;;;3587391;40;20511;-59
2021/07/29 12:43:16;;;;;;;5.13;2.05;;;;;;;;;;3586708;40;20044;-59
2021/07/29 12:45:58;;;;;;;4.53;2.35;;;;;;;;;;3587062;40;20269;-58
2021/07/29 12:48:26;;;;;;;3.10;1.80;;;;;;;;;;3587388;40;20419;-59
2021/07/29 12:50:52;;;;;;;4.03;2.03;;;;;;;;;;3586879;40;20083;-59
2021/07/29 12:53:18;;;;;;;4.10;1.85;;;;;;;;;;3586485;40;20406;-59
2021/07/29 12:55:45;;;;;;;3.80;2.13;;;;;;;;;;3587385;40;20048;-59
2021/07/29 12:58:11;;;;;;;3.33;1.70;;;;;;;;;;3586824;40;20285;-60
2021/07/29 13:00:41;;;;;;;3.30;1.92;;;;;;;;;;3587283;40;20055;-59
2021/07/29 13:03:34;;;;;;;4.13;2.25;;;;;;;;;;3586862;40;20205;-59
2021/07/29 13:05:59;;;;;;;3.63;1.98;;;;;;;;;;3586143;40;20094;-59
2021/07/29 13:08:27;;;;;;;3.35;1.98;;;;;;;;;;3586669;40;20049;-59
2021/07/29 13:10:53;;;;;;;3.47;1.90;;;;;;;;;;3586958;40;20033;-59
2021/07/29 13:13:24;;;;;;;6.25;2.33;;;;;;;;;;3586474;40;20040;-59
2021/07/29 13:15:49;;;;;;;4.68;1.95;;;;;;;;;;3587103;40;20036;-59
2021/07/29 13:18:15;;;;;;;3.33;1.92;;;;;;;;;;3587346;40;20048;-59
2021/07/29 13:20:40;;;;;;;7.95;2.38;;;;;;;;;;3587004;40;20130;-59
2021/07/29 13:23:06;;;;;;;3.47;1.88;;;;;;;;;;3586703;40;20290;-60
2021/07/29 13:25:31;;;;;;;8.60;2.17;;;;;;;;;;3587054;40;20374;-60
2021/07/29 13:27:56;;;;;;;5.30;2.08;;;;;;;;;;3587295;40;20043;-59
2021/07/29 13:30:22;;;;;;;3.58;2.10;;;;;;;;;;3586791;40;20331;-60
2021/07/29 13:32:47;;;;;;;3.33;1.90;;;;;;;;;;3586585;40;20391;-59
2021/07/29 13:35:13;;;;;;;7.85;2.00;;;;;;;;;;3586936;40;20045;-60
2021/07/29 13:37:39;;;;;;;2.75;1.80;;;;;;;;;;3585422;40;20039;-60
2021/07/29 13:40:05;;;;;;;3.60;1.90;;;;;;;;;;3585518;40;20060;-60
2021/07/29 13:42:31;;;;;;;4.20;2.10;;;;;;;;;;3586924;40;20126;-59
2021/07/29 13:45:16;;;;;;;4.05;1.92;;;;;;;;;;3587142;40;20096;-60
2021/07/29 13:47:51;;;;;;;3.65;2.00;;;;;;;;;;3587360;40;20043;-59
2021/07/29 13:50:19;;;;;;;4.30;2.25;;;;;;;;;;3585832;40;20044;-60
2021/07/29 13:52:45;;;;;;;3.20;2.05;;;;;;;;;;3586363;40;20033;-59
2021/07/29 13:55:12;;;;;;;3.45;2.22;;;;;;;;;;3586405;40;20044;-59
2021/07/29 13:57:37;;;;;;;4.10;2.05;;;;;;;;;;3585983;40;20403;-60
2021/07/29 14:00:05;;;;;;;3.00;1.70;;;;;;;;;;3585364;40;20122;-59
2021/07/29 14:02:33;;;;;;;3.75;1.88;;;;;;;;;;3586070;40;20028;-60
2021/07/29 14:04:58;;;;;;;3.05;1.83;;;;;;;;;;3586168;40;20129;-59
2021/07/29 14:07:24;;;;;;;3.05;1.80;;;;;;;;;;3586744;40;20040;-59
2021/07/29 14:09:49;;;;;;;3.67;2.47;;;;;;;;;;3586844;40;20056;-59
2021/07/29 14:12:15;;;;;;;3.50;1.98;;;;;;;;;;3586062;40;20039;-59
2021/07/29 14:14:40;;;;;;;3.75;1.90;;;;;;;;;;3586636;40;20273;-59
2021/07/29 14:17:21;;;;;;;2.80;1.55;;;;;;;;;;3585753;40;20375;-59
2021/07/29 14:20:00;;;;;;;3.42;1.90;;;;;;;;;;3587224;40;20041;-59
2021/07/29 14:25:09;;;;;;;4.22;2.00;;;;;;;;;;3584141;40;20377;-58
2021/07/29 14:27:35;;;;;;;3.92;1.98;;;;;;;;;;3585311;40;20044;-59
2021/07/29 14:30:01;;;;;;;6.55;1.90;;;;;;;;;;3586863;40;20045;-60
2021/07/29 14:32:26;;;;;;;4.55;1.90;;;;;;;;;;3586749;40;20068;-59
2021/07/29 14:34:52;;;;;;;3.00;1.70;;;;;;;;;;3586588;40;20391;-59
2021/07/29 14:37:17;;;;;;;3.92;2.13;;;;;;;;;;3586641;40;20389;-59
2021/07/29 14:39:43;;;;;;;3.03;1.65;;;;;;;;;;3586460;40;20264;-59
2021/07/29 14:42:08;;;;;;;3.35;2.05;;;;;;;;;;3586041;40;20310;-58